Time;durP1;ratioP1;P1;durP2;ratioP2;P2;SDS_P1;SDS_P2;PMS_P1;PMS_P2;Temp;Humidity;BMP_temperature;BMP_pressure;BME280_temperature;BME280_humidity;BME280_pressure;Samples;Min_cycle;Max_cycle;Signal;HPM_P1;HPM_P2
2022/11/28 00:00:58;;;;;;;4.20;2.43;;;6.30;98.00;;;;;;5015806;28;20945;-68
2022/11/28 00:03:25;;;;;;;2.03;1.77;;;6.30;98.00;;;;;;5016038;28;20493;-68
2022/11/28 00:05:52;;;;;;;4.60;2.23;;;6.30;98.00;;;;;;5015929;28;20892;-68
2022/11/28 00:08:20;;;;;;;3.13;2.43;;;6.40;98.00;;;;;;5016036;28;20818;-68
2022/11/28 00:10:48;;;;;;;2.53;2.10;;;6.40;98.00;;;;;;5015979;28;20460;-68
2022/11/28 00:13:17;;;;;;;2.43;1.93;;;6.30;98.00;;;;;;5015550;28;20472;-68
2022/11/28 00:15:44;;;;;;;2.50;2.10;;;6.30;98.00;;;;;;5015797;28;20459;-68
2022/11/28 00:18:12;;;;;;;3.60;2.10;;;6.20;98.00;;;;;;5015640;28;20499;-68
2022/11/28 00:20:39;;;;;;;2.07;1.70;;;6.20;98.00;;;;;;5015816;28;20988;-68
2022/11/28 00:23:06;;;;;;;4.17;2.27;;;6.20;98.00;;;;;;5015754;28;20462;-68
2022/11/28 00:25:33;;;;;;;3.40;2.03;;;6.10;98.00;;;;;;5015734;28;20450;-67
2022/11/28 00:28:02;;;;;;;2.57;2.20;;;6.20;98.00;;;;;;5015755;28;20864;-68
2022/11/28 00:30:29;;;;;;;2.97;1.60;;;6.30;98.00;;;;;;5015663;28;20465;-68
2022/11/28 00:32:56;;;;;;;3.50;2.37;;;6.40;98.00;;;;;;5014577;28;20876;-68
2022/11/28 00:35:23;;;;;;;2.60;2.30;;;6.30;98.00;;;;;;5015510;28;20445;-68
2022/11/28 00:37:50;;;;;;;2.17;1.50;;;6.20;98.00;;;;;;5015697;28;21025;-68
2022/11/28 00:40:17;;;;;;;3.10;2.17;;;6.20;98.00;;;;;;5015412;28;20510;-67
2022/11/28 00:42:44;;;;;;;3.23;2.03;;;6.30;98.00;;;;;;5015611;28;20469;-68
2022/11/28 00:45:13;;;;;;;2.77;1.97;;;6.30;98.00;;;;;;5015240;28;20459;-68
2022/11/28 00:47:40;;;;;;;3.07;1.90;;;6.40;98.00;;;;;;5015512;28;20460;-68
2022/11/28 00:50:08;;;;;;;2.57;2.30;;;6.50;98.00;;;;;;5015057;28;20837;-68
2022/11/28 00:52:35;;;;;;;3.03;1.97;;;6.40;98.00;;;;;;5015136;28;20843;-68
2022/11/28 00:55:02;;;;;;;5.83;2.03;;;6.40;98.00;;;;;;5014845;28;20463;-68
2022/11/28 00:57:38;;;;;;;4.03;1.93;;;6.50;98.00;;;;;;5015091;28;20511;-67
2022/11/28 01:00:07;;;;;;;3.30;1.90;;;6.40;98.00;;;;;;5014898;28;20462;-68
2022/11/28 01:02:36;;;;;;;4.30;2.20;;;6.30;98.00;;;;;;5015035;28;20494;-68
2022/11/28 01:05:03;;;;;;;3.77;2.13;;;6.20;98.00;;;;;;5014759;28;20459;-67
2022/11/28 01:07:33;;;;;;;2.67;1.83;;;6.30;98.00;;;;;;5013594;28;20464;-68
2022/11/28 01:10:00;;;;;;;3.83;2.00;;;6.20;98.00;;;;;;5014788;28;20465;-68
2022/11/28 01:12:27;;;;;;;1.80;1.60;;;6.10;98.00;;;;;;5013511;28;21029;-68
2022/11/28 01:14:56;;;;;;;1.70;1.50;;;6.10;98.00;;;;;;5015033;28;20796;-68
2022/11/28 01:17:23;;;;;;;3.00;2.00;;;6.10;98.00;;;;;;5014659;28;20826;-67
2022/11/28 01:19:55;;;;;;;3.43;2.10;;;6.20;98.00;;;;;;5014740;28;20474;-68
2022/11/28 01:22:22;;;;;;;6.80;2.53;;;6.30;98.00;;;;;;5014717;28;20520;-68
2022/11/28 01:24:49;;;;;;;3.63;1.80;;;6.20;98.00;;;;;;5014948;28;20815;-68
2022/11/28 01:27:16;;;;;;;3.73;1.90;;;6.30;98.00;;;;;;5013521;28;20456;-68
2022/11/28 01:29:43;;;;;;;2.27;2.00;;;6.20;98.00;;;;;;5014669;28;20930;-68
2022/11/28 01:32:10;;;;;;;3.97;2.20;;;6.20;98.00;;;;;;5014649;28;20457;-68
2022/11/28 01:34:37;;;;;;;2.97;1.67;;;6.20;98.00;;;;;;5014027;28;20821;-68
2022/11/28 01:37:06;;;;;;;3.13;1.90;;;6.20;98.00;;;;;;5012975;28;20546;-67
2022/11/28 01:39:33;;;;;;;2.67;1.83;;;6.30;98.00;;;;;;5014484;28;20470;-68
2022/11/28 01:42:00;;;;;;;3.33;2.17;;;6.30;98.00;;;;;;5014192;28;20827;-68
2022/11/28 01:45:04;;;;;;;2.80;1.80;;;6.40;98.00;;;;;;5014426;28;20846;-67
2022/11/28 01:47:32;;;;;;;9.00;2.27;;;6.40;98.00;;;;;;5014173;28;20817;-68
2022/11/28 01:50:00;;;;;;;3.63;2.03;;;6.30;98.00;;;;;;5014198;28;20902;-68
2022/11/28 01:52:28;;;;;;;4.47;3.07;;;6.30;98.00;;;;;;5013904;28;20921;-68
2022/11/28 01:55:00;;;;;;;3.20;1.97;;;6.30;98.00;;;;;;5013984;28;20463;-67
2022/11/28 01:57:28;;;;;;;4.93;2.23;;;6.20;98.00;;;;;;5013688;28;20543;-68
2022/11/28 01:59:59;;;;;;;4.60;2.47;;;6.20;98.00;;;;;;5013768;28;20512;-68
2022/11/28 02:02:33;;;;;;;2.60;1.80;;;6.20;98.00;;;;;;5013851;28;20959;-68
2022/11/28 02:05:03;;;;;;;4.60;2.10;;;6.20;98.00;;;;;;5013760;28;20467;-68
2022/11/28 02:07:32;;;;;;;2.30;1.73;;;6.10;98.00;;;;;;5013900;28;20459;-68
2022/11/28 02:10:00;;;;;;;4.77;2.50;;;6.10;98.00;;;;;;5013584;28;20802;-68
2022/11/28 02:12:35;;;;;;;4.23;2.57;;;6.20;98.00;;;;;;5013731;28;20839;-68
2022/11/28 02:15:20;;;;;;;2.80;1.83;;;6.30;98.00;;;;;;5013745;28;20467;-67
2022/11/28 02:18:06;;;;;;;2.33;2.07;;;6.20;98.00;;;;;;5013173;28;20491;-68
2022/11/28 02:21:01;;;;;;;3.13;1.80;;;6.10;98.00;;;;;;5013726;28;20517;-68
2022/11/28 02:23:46;;;;;;;1.87;1.57;;;6.20;98.00;;;;;;5006774;28;20518;-68
2022/11/28 02:26:36;;;;;;;4.17;2.50;;;6.30;98.00;;;;;;5013590;28;20462;-68
2022/11/28 02:29:22;;;;;;;7.63;2.40;;;6.20;98.00;;;;;;5013421;28;20470;-68
2022/11/28 02:32:14;;;;;;;4.47;2.00;;;6.20;98.00;;;;;;5013477;28;20468;-68
2022/11/28 02:34:48;;;;;;;4.10;2.00;;;6.10;98.00;;;;;;5013299;28;20455;-68
2022/11/28 02:37:26;;;;;;;3.00;1.87;;;6.10;98.00;;;;;;5013025;28;20483;-68
2022/11/28 02:40:03;;;;;;;2.87;2.00;;;6.00;98.00;;;;;;5013281;28;20471;-68
2022/11/28 02:42:39;;;;;;;2.17;2.03;;;5.90;98.00;;;;;;5013099;28;20466;-67
2022/11/28 02:45:13;;;;;;;4.40;2.87;;;5.90;98.00;;;;;;5012980;28;20463;-68
2022/11/28 02:47:45;;;;;;;5.93;2.27;;;5.90;98.00;;;;;;5011751;28;20462;-68
2022/11/28 02:50:18;;;;;;;4.07;1.90;;;5.90;98.00;;;;;;5013054;28;20845;-68
2022/11/28 02:52:49;;;;;;;3.83;2.47;;;5.90;98.00;;;;;;5012831;28;20463;-68
2022/11/28 02:55:16;;;;;;;3.20;2.17;;;5.80;98.00;;;;;;5012770;28;20890;-68
2022/11/28 02:57:48;;;;;;;4.10;2.50;;;5.90;98.00;;;;;;5012735;28;20857;-68
2022/11/28 03:00:25;;;;;;;4.07;2.67;;;5.90;98.00;;;;;;5012789;28;20475;-68
2022/11/28 03:03:15;;;;;;;3.23;2.10;;;5.90;98.00;;;;;;5012778;28;20456;-68
2022/11/28 03:05:49;;;;;;;4.00;2.03;;;5.90;98.00;;;;;;5012736;28;20497;-68
2022/11/28 03:08:37;;;;;;;1.90;1.63;;;5.80;98.00;;;;;;5012711;28;21094;-68
2022/11/28 03:11:10;;;;;;;3.10;2.30;;;5.80;98.00;;;;;;5012608;28;21016;-68
2022/11/28 03:13:41;;;;;;;3.80;2.30;;;5.80;98.00;;;;;;5012628;28;20455;-68
2022/11/28 03:16:18;;;;;;;3.03;1.97;;;5.90;98.00;;;;;;5012239;28;20469;-68
2022/11/28 03:18:56;;;;;;;3.23;2.00;;;6.10;98.00;;;;;;5011664;28;20498;-68
2022/11/28 03:21:31;;;;;;;3.70;2.50;;;6.10;98.00;;;;;;5011774;28;20525;-68
2022/11/28 03:24:06;;;;;;;4.80;2.00;;;6.00;98.00;;;;;;5012009;28;20835;-68
2022/11/28 03:26:39;;;;;;;3.50;2.13;;;6.00;98.00;;;;;;5012113;28;20665;-68
2022/11/28 03:29:17;;;;;;;2.80;2.13;;;6.00;98.00;;;;;;5011497;28;21028;-67
2022/11/28 03:31:49;;;;;;;2.40;1.60;;;6.00;98.00;;;;;;5012449;28;20468;-68
2022/11/28 03:34:22;;;;;;;2.73;1.97;;;6.00;98.00;;;;;;5011144;28;20456;-68
2022/11/28 03:36:53;;;;;;;4.50;2.30;;;6.00;98.00;;;;;;5012297;28;20976;-68
2022/11/28 03:39:24;;;;;;;3.47;2.07;;;5.90;98.00;;;;;;5012167;28;20498;-68
2022/11/28 03:41:57;;;;;;;3.30;2.10;;;5.90;98.00;;;;;;5012095;28;20463;-68
2022/11/28 03:44:28;;;;;;;3.50;1.93;;;5.80;98.00;;;;;;5012364;28;20469;-67
2022/11/28 03:46:57;;;;;;;4.97;2.50;;;5.90;98.00;;;;;;5012230;28;20461;-68
2022/11/28 03:49:30;;;;;;;3.30;2.40;;;5.90;98.00;;;;;;5012062;28;20474;-68
2022/11/28 03:52:01;;;;;;;2.50;2.10;;;5.80;98.00;;;;;;5012082;28;20475;-68
2022/11/28 03:54:34;;;;;;;3.23;1.97;;;5.80;98.00;;;;;;5012291;28;20466;-68
2022/11/28 03:57:11;;;;;;;2.90;1.80;;;5.70;98.00;;;;;;5010764;28;20456;-68
2022/11/28 03:59:41;;;;;;;3.30;2.27;;;5.80;98.00;;;;;;5012226;28;20484;-68
2022/11/28 04:02:17;;;;;;;1.80;1.50;;;5.80;98.00;;;;;;5011977;28;20469;-68
2022/11/28 04:04:53;;;;;;;4.80;2.50;;;5.70;98.00;;;;;;5012077;28;20514;-68
2022/11/28 04:07:26;;;;;;;2.43;1.80;;;5.80;98.00;;;;;;5012136;28;21001;-68
2022/11/28 04:10:04;;;;;;;3.20;1.87;;;5.80;98.00;;;;;;5011980;28;20959;-68
2022/11/28 04:12:39;;;;;;;3.23;1.63;;;5.90;98.00;;;;;;5010896;28;20944;-68
2022/11/28 04:15:13;;;;;;;3.23;2.17;;;6.00;98.00;;;;;;5011905;28;20459;-68
2022/11/28 04:17:50;;;;;;;5.87;3.13;;;6.10;98.00;;;;;;5012228;28;20491;-68
2022/11/28 04:20:25;;;;;;;1.90;1.80;;;6.00;98.00;;;;;;5011869;28;20454;-68
2022/11/28 04:22:56;;;;;;;1.90;1.50;;;5.80;98.00;;;;;;5011928;28;20470;-68
2022/11/28 04:25:25;;;;;;;4.27;2.60;;;5.80;98.00;;;;;;5011811;28;20465;-68
2022/11/28 04:27:57;;;;;;;5.10;2.33;;;5.90;98.00;;;;;;5011929;28;20455;-68
2022/11/28 04:30:27;;;;;;;3.13;1.63;;;5.80;98.00;;;;;;5011729;28;20467;-68
2022/11/28 04:33:00;;;;;;;3.00;1.83;;;5.70;98.00;;;;;;5011896;28;20465;-68
2022/11/28 04:35:32;;;;;;;4.90;2.17;;;5.50;98.00;;;;;;5011578;28;20464;-68
2022/11/28 04:38:01;;;;;;;5.73;2.57;;;5.60;98.00;;;;;;5011722;28;20493;-68
2022/11/28 04:40:31;;;;;;;4.77;1.90;;;5.50;98.00;;;;;;5012399;28;20456;-68
2022/11/28 04:43:02;;;;;;;3.87;2.00;;;5.50;98.00;;;;;;5015419;28;20865;-68
2022/11/28 04:45:32;;;;;;;3.03;1.63;;;5.50;98.00;;;;;;5015462;28;20463;-68
2022/11/28 04:48:00;;;;;;;2.57;1.70;;;5.50;98.00;;;;;;5015376;28;20496;-68
2022/11/28 04:50:37;;;;;;;3.83;2.63;;;5.40;98.00;;;;;;5015229;28;20454;-68
2022/11/28 04:53:10;;;;;;;3.90;1.90;;;5.40;98.00;;;;;;5015173;28;20470;-68
2022/11/28 04:55:45;;;;;;;2.70;1.87;;;5.50;98.00;;;;;;5014202;28;20819;-68
2022/11/28 04:58:16;;;;;;;4.80;2.57;;;5.40;98.00;;;;;;5015068;28;20572;-68
2022/11/28 05:00:45;;;;;;;2.93;2.10;;;5.40;98.00;;;;;;5013945;28;20964;-68
2022/11/28 05:03:13;;;;;;;2.47;1.70;;;5.50;98.00;;;;;;5015038;28;20496;-68
2022/11/28 05:05:47;;;;;;;5.57;1.90;;;5.40;98.00;;;;;;5015006;28;20806;-68
2022/11/28 05:08:14;;;;;;;2.27;1.77;;;5.40;98.00;;;;;;5015014;28;20515;-68
2022/11/28 05:10:42;;;;;;;1.87;1.60;;;5.40;98.00;;;;;;5015223;28;20462;-68
2022/11/28 05:13:09;;;;;;;3.00;1.97;;;5.50;98.00;;;;;;5015034;28;20465;-68
2022/11/28 05:15:36;;;;;;;3.00;1.63;;;5.30;98.00;;;;;;5014964;28;20474;-68
2022/11/28 05:18:04;;;;;;;4.70;2.77;;;5.40;98.00;;;;;;5014398;28;20493;-68
2022/11/28 05:20:32;;;;;;;3.83;2.33;;;5.40;98.00;;;;;;5014615;28;20495;-68
2022/11/28 05:23:00;;;;;;;2.73;2.10;;;5.50;98.00;;;;;;5014360;28;20465;-67
2022/11/28 05:25:27;;;;;;;4.77;2.50;;;5.50;98.00;;;;;;5014578;28;20457;-68
2022/11/28 05:27:54;;;;;;;4.37;2.50;;;5.50;98.00;;;;;;5014499;28;20509;-68
2022/11/28 05:30:21;;;;;;;5.37;3.03;;;5.50;98.00;;;;;;5014408;28;20823;-68
2022/11/28 05:32:48;;;;;;;7.93;2.90;;;5.30;98.00;;;;;;5014286;28;20467;-68
2022/11/28 05:35:19;;;;;;;2.57;1.83;;;5.30;98.00;;;;;;5014383;28;20943;-68
2022/11/28 05:37:46;;;;;;;2.63;1.97;;;5.40;98.00;;;;;;5014506;28;20471;-68
2022/11/28 05:40:15;;;;;;;5.17;2.40;;;5.40;98.00;;;;;;5014187;28;20965;-68
2022/11/28 05:42:42;;;;;;;3.40;2.27;;;5.40;98.00;;;;;;5014428;28;21084;-67
2022/11/28 05:45:10;;;;;;;3.93;2.20;;;5.30;98.00;;;;;;5014159;28;20471;-68
2022/11/28 05:47:38;;;;;;;4.70;2.13;;;5.50;98.00;;;;;;5014285;28;20449;-68
2022/11/28 05:50:06;;;;;;;4.33;1.83;;;5.60;98.00;;;;;;5013940;28;20648;-68
2022/11/28 05:52:35;;;;;;;2.40;1.77;;;5.70;98.00;;;;;;5013341;28;20456;-68
2022/11/28 05:55:04;;;;;;;1.50;1.30;;;5.60;98.00;;;;;;5014357;28;20463;-68
2022/11/28 05:57:33;;;;;;;1.97;1.60;;;5.50;98.00;;;;;;5014068;28;20952;-67
2022/11/28 06:00:00;;;;;;;3.20;2.00;;;5.50;98.00;;;;;;5014204;28;20873;-67
2022/11/28 06:02:27;;;;;;;1.50;1.40;;;5.40;98.00;;;;;;5014025;28;20454;-68
2022/11/28 06:04:55;;;;;;;2.20;1.90;;;5.50;98.00;;;;;;5014224;28;20465;-67
2022/11/28 06:07:22;;;;;;;4.20;2.00;;;5.40;98.00;;;;;;5013601;28;20964;-68
2022/11/28 06:09:51;;;;;;;2.03;1.83;;;5.40;98.00;;;;;;5013951;28;20455;-68
2022/11/28 06:12:18;;;;;;;2.10;1.90;;;5.30;98.00;;;;;;5012422;28;20546;-67
2022/11/28 06:14:47;;;;;;;3.83;2.20;;;5.40;98.00;;;;;;5013585;28;20465;-68
2022/11/28 06:17:14;;;;;;;2.23;1.97;;;5.30;98.00;;;;;;5013240;28;20456;-68
2022/11/28 06:19:41;;;;;;;2.73;1.60;;;5.20;98.00;;;;;;5013616;28;20845;-67
2022/11/28 06:22:09;;;;;;;2.90;2.30;;;5.10;98.00;;;;;;5012129;28;20470;-68
2022/11/28 06:24:36;;;;;;;4.73;2.43;;;5.10;98.00;;;;;;5012267;28;20460;-68
2022/11/28 06:27:03;;;;;;;3.30;1.90;;;5.10;98.00;;;;;;5013367;28;20461;-68
2022/11/28 06:29:31;;;;;;;1.63;1.40;;;5.10;98.00;;;;;;5012216;28;20518;-68
2022/11/28 06:31:59;;;;;;;1.60;1.60;;;5.10;98.00;;;;;;5013322;28;20826;-68
2022/11/28 06:34:27;;;;;;;2.67;2.00;;;5.20;98.00;;;;;;5013204;28;20452;-68
2022/11/28 06:36:54;;;;;;;3.47;2.63;;;5.20;98.00;;;;;;5013434;28;20477;-68
2022/11/28 06:39:21;;;;;;;3.30;1.93;;;5.20;98.00;;;;;;5013213;28;20876;-68
2022/11/28 06:41:48;;;;;;;4.63;2.70;;;5.10;98.00;;;;;;5013317;28;20462;-68
2022/11/28 06:44:16;;;;;;;3.23;1.80;;;5.10;98.00;;;;;;5013258;28;20861;-68
2022/11/28 06:46:44;;;;;;;2.50;1.57;;;5.00;98.00;;;;;;5013240;28;20465;-68
2022/11/28 06:49:16;;;;;;;3.67;2.13;;;5.00;98.00;;;;;;5013254;28;20510;-67
2022/11/28 06:51:44;;;;;;;3.07;1.83;;;5.00;98.00;;;;;;5013322;28;20458;-68
2022/11/28 06:54:12;;;;;;;4.83;2.40;;;4.90;98.00;;;;;;5013264;28;20452;-68
2022/11/28 06:56:40;;;;;;;2.70;2.13;;;4.90;98.00;;;;;;5013315;28;20493;-67
2022/11/28 06:59:08;;;;;;;2.13;1.97;;;4.90;98.00;;;;;;5012993;28;20481;-68
2022/11/28 07:01:35;;;;;;;3.30;2.23;;;4.80;98.00;;;;;;5012877;28;20898;-68
2022/11/28 07:04:02;;;;;;;3.77;2.10;;;4.80;98.00;;;;;;5012611;28;20462;-68
2022/11/28 07:06:33;;;;;;;3.00;2.70;;;4.90;98.00;;;;;;5011670;28;20838;-68
2022/11/28 07:09:00;;;;;;;4.00;2.17;;;4.90;98.00;;;;;;5012652;28;20455;-68
2022/11/28 07:11:29;;;;;;;3.00;1.90;;;4.90;98.00;;;;;;5012554;28;20456;-68
2022/11/28 07:13:57;;;;;;;2.30;1.70;;;4.90;98.00;;;;;;5012608;28;20460;-68
2022/11/28 07:16:26;;;;;;;2.07;1.73;;;5.00;98.00;;;;;;5012470;28;20869;-68
2022/11/28 07:18:55;;;;;;;3.83;2.27;;;5.00;98.00;;;;;;5012491;28;20492;-68
2022/11/28 07:21:22;;;;;;;2.53;2.00;;;5.00;98.00;;;;;;5012350;28;20450;-68
2022/11/28 07:23:52;;;;;;;3.30;2.13;;;5.10;98.00;;;;;;5012490;28;20460;-68
2022/11/28 07:26:20;;;;;;;2.40;2.20;;;5.10;98.00;;;;;;5012216;28;20450;-68
2022/11/28 07:28:48;;;;;;;2.00;1.90;;;5.20;98.00;;;;;;5012398;28;20466;-68
2022/11/28 07:31:17;;;;;;;3.87;2.07;;;5.10;98.00;;;;;;5012314;28;20539;-67
2022/11/28 07:33:45;;;;;;;4.60;2.40;;;5.20;98.00;;;;;;5012242;28;20490;-68
2022/11/28 07:36:15;;;;;;;4.03;2.60;;;5.30;98.00;;;;;;5012321;28;20454;-68
2022/11/28 07:38:42;;;;;;;4.10;2.90;;;5.30;98.00;;;;;;5012342;28;20479;-68
2022/11/28 07:41:13;;;;;;;2.43;2.00;;;5.40;98.00;;;;;;5012388;28;20462;-68
2022/11/28 07:43:43;;;;;;;5.53;2.43;;;5.60;98.00;;;;;;5012330;28;20471;-67
2022/11/28 07:46:13;;;;;;;4.33;2.90;;;5.70;98.00;;;;;;5012325;28;20477;-68
2022/11/28 07:48:40;;;;;;;1.80;1.70;;;5.70;98.00;;;;;;5012560;28;20463;-68
2022/11/28 07:51:09;;;;;;;2.63;1.90;;;5.60;98.00;;;;;;5011360;28;20451;-68
2022/11/28 07:53:36;;;;;;;3.57;2.13;;;5.60;98.00;;;;;;5031540;28;20466;-68
2022/11/28 07:56:05;;;;;;;5.53;2.57;;;5.40;98.00;;;;;;5031980;28;20460;-67
2022/11/28 07:58:34;;;;;;;2.40;2.10;;;5.30;98.00;;;;;;5031431;28;20468;-68
2022/11/28 08:01:08;;;;;;;5.37;2.80;;;5.20;98.00;;;;;;5031770;28;20482;-67
2022/11/28 08:03:35;;;;;;;4.90;2.23;;;5.30;98.00;;;;;;5031444;28;20974;-68
2022/11/28 08:06:03;;;;;;;2.70;1.80;;;5.40;98.00;;;;;;5013938;28;20452;-68
2022/11/28 08:08:31;;;;;;;5.27;2.30;;;5.40;98.00;;;;;;5031745;28;20493;-68
2022/11/28 08:10:59;;;;;;;2.80;1.97;;;5.40;98.00;;;;;;5031529;28;20457;-67
2022/11/28 08:13:26;;;;;;;2.30;2.10;;;5.50;98.00;;;;;;5031619;28;20456;-67
2022/11/28 08:15:54;;;;;;;6.67;3.00;;;5.50;98.00;;;;;;5033124;28;20789;-67
2022/11/28 08:18:21;;;;;;;3.00;2.27;;;5.50;98.00;;;;;;5017761;28;20474;-68
2022/11/28 08:20:48;;;;;;;5.53;2.77;;;5.50;98.00;;;;;;5035416;28;21012;-67
2022/11/28 08:23:16;;;;;;;4.13;1.80;;;5.50;98.00;;;;;;5035209;28;20477;-68
2022/11/28 08:25:43;;;;;;;3.73;2.73;;;5.70;98.00;;;;;;5035274;28;20962;-68
2022/11/28 08:28:10;;;;;;;7.40;3.10;;;5.80;98.00;;;;;;5035423;28;20466;-68
2022/11/28 08:30:37;;;;;;;5.80;2.60;;;5.70;98.00;;;;;;5035422;28;20462;-68
2022/11/28 08:33:06;;;;;;;3.63;2.40;;;5.70;98.00;;;;;;5017841;28;20465;-68
2022/11/28 08:35:33;;;;;;;4.27;2.60;;;5.90;98.00;;;;;;5035358;28;20466;-68
2022/11/28 08:38:00;;;;;;;3.10;2.23;;;6.00;98.00;;;;;;5029862;28;20457;-68
2022/11/28 08:40:27;;;;;;;4.80;2.73;;;6.00;98.00;;;;;;5011999;28;20549;-68
2022/11/28 08:42:54;;;;;;;3.00;2.30;;;6.00;98.00;;;;;;5012611;28;20455;-68
2022/11/28 08:45:21;;;;;;;4.90;2.07;;;6.00;98.00;;;;;;5012201;28;20453;-68
2022/11/28 08:47:48;;;;;;;3.10;2.47;;;6.10;98.00;;;;;;5011723;28;20471;-68
2022/11/28 08:50:17;;;;;;;2.97;2.17;;;6.10;98.00;;;;;;5009225;28;20462;-68
2022/11/28 08:52:44;;;;;;;4.10;2.30;;;6.20;98.00;;;;;;5011847;28;20522;-68
2022/11/28 08:55:11;;;;;;;4.73;2.80;;;6.30;98.00;;;;;;5012180;28;20954;-68
2022/11/28 08:57:38;;;;;;;4.40;2.80;;;6.40;98.00;;;;;;5012202;28;21176;-69
2022/11/28 09:00:07;;;;;;;5.20;2.87;;;6.40;98.00;;;;;;4994776;28;20490;-66
2022/11/28 09:02:34;;;;;;;2.87;2.17;;;6.50;98.00;;;;;;5014517;28;20476;-67
2022/11/28 09:05:01;;;;;;;5.87;2.83;;;6.60;98.00;;;;;;4994670;28;20458;-67
2022/11/28 09:07:30;;;;;;;3.67;2.80;;;6.60;98.00;;;;;;5012058;28;20452;-67
2022/11/28 09:09:57;;;;;;;5.63;2.57;;;6.40;98.00;;;;;;5012019;28;20475;-66
2022/11/28 09:12:24;;;;;;;6.00;3.50;;;6.40;98.00;;;;;;5012113;28;20465;-66
2022/11/28 09:14:51;;;;;;;4.63;2.47;;;6.40;98.00;;;;;;5011957;28;20800;-66
2022/11/28 09:17:18;;;;;;;5.43;3.10;;;6.50;98.00;;;;;;5011718;28;20469;-66
2022/11/28 09:19:45;;;;;;;4.60;2.90;;;6.80;98.00;;;;;;5011732;28;20494;-66
2022/11/28 09:22:12;;;;;;;4.70;3.10;;;6.80;98.00;;;;;;5011932;28;20960;-67
2022/11/28 09:24:40;;;;;;;4.43;2.97;;;6.60;98.00;;;;;;5011815;28;20467;-65
2022/11/28 09:27:08;;;;;;;5.40;3.00;;;6.70;98.00;;;;;;5010534;28;20460;-65
2022/11/28 09:29:35;;;;;;;4.93;2.83;;;6.90;98.00;;;;;;5012396;28;20456;-66
2022/11/28 09:32:02;;;;;;;7.63;3.13;;;6.90;98.00;;;;;;5011856;28;20507;-66
2022/11/28 09:34:29;;;;;;;6.50;3.00;;;7.00;98.00;;;;;;4994310;28;20466;-65
2022/11/28 09:36:56;;;;;;;3.60;2.60;;;7.10;98.00;;;;;;5011807;28;20797;-66
2022/11/28 09:39:24;;;;;;;3.57;2.93;;;7.20;98.00;;;;;;4994025;28;20484;-66
2022/11/28 09:42:01;;;;;;;4.23;2.53;;;7.20;98.00;;;;;;5011467;28;20481;-65
2022/11/28 09:44:36;;;;;;;8.17;3.00;;;7.20;98.00;;;;;;5011652;28;20471;-66
2022/11/28 09:47:11;;;;;;;4.63;2.77;;;7.00;98.00;;;;;;5011316;28;20470;-67
2022/11/28 09:49:43;;;;;;;4.93;2.77;;;6.90;98.00;;;;;;5008350;28;20965;-66
2022/11/28 09:52:23;;;;;;;14.43;2.87;;;6.90;98.00;;;;;;5011424;28;20471;-65
2022/11/28 09:54:57;;;;;;;4.63;2.93;;;7.00;98.00;;;;;;5011153;28;20486;-66
2022/11/28 09:57:33;;;;;;;7.63;3.20;;;7.10;98.00;;;;;;5010897;28;20451;-65
2022/11/28 10:00:01;;;;;;;5.60;3.50;;;7.00;98.00;;;;;;4993533;28;21013;-65
2022/11/28 10:02:35;;;;;;;4.53;2.33;;;6.90;98.00;;;;;;5010911;28;20470;-65
2022/11/28 10:05:15;;;;;;;5.43;3.70;;;6.90;98.00;;;;;;5010922;28;20524;-65
2022/11/28 10:07:58;;;;;;;3.60;2.30;;;7.10;98.00;;;;;;5010900;28;20950;-65
2022/11/28 10:13:26;;;;;;;3.93;2.23;;;7.30;98.00;;;;;;5009785;28;20490;-65
2022/11/28 10:16:00;;;;;;;6.10;3.10;;;7.40;98.00;;;;;;5010270;28;20518;-65
2022/11/28 10:18:40;;;;;;;3.87;2.57;;;7.40;98.00;;;;;;5010329;28;20836;-65
2022/11/28 10:21:21;;;;;;;6.80;2.90;;;7.50;98.00;;;;;;5010277;28;20520;-65
2022/11/28 10:23:50;;;;;;;5.83;3.10;;;7.50;98.00;;;;;;5010495;28;20565;-66
2022/11/28 10:26:21;;;;;;;4.50;2.27;;;7.50;98.00;;;;;;5009551;28;20467;-65
2022/11/28 10:28:53;;;;;;;8.20;3.00;;;7.50;98.00;;;;;;5210296;22;21139;-65
2022/11/28 10:31:30;;;;;;;4.03;2.80;;;7.50;98.00;;;;;;5019408;28;20469;-66
2022/11/28 10:34:05;;;;;;;5.43;2.70;;;7.60;98.00;;;;;;5009995;28;20463;-66
2022/11/28 10:36:39;;;;;;;5.03;3.43;;;7.60;98.00;;;;;;5019913;28;20985;-65
2022/11/28 10:39:11;;;;;;;5.63;3.53;;;7.40;98.00;;;;;;5011286;28;20903;-65
2022/11/28 10:42:10;;;;;;;7.70;2.93;;;7.30;98.00;;;;;;5029210;28;20502;-65
2022/11/28 10:45:00;;;;;;;6.30;4.10;;;7.30;98.00;;;;;;5023508;28;20515;-66
2022/11/28 10:48:02;;;;;;;5.10;3.20;;;7.40;98.00;;;;;;5012161;28;20457;-66
2022/11/28 10:50:37;;;;;;;5.80;2.80;;;7.40;98.00;;;;;;5012246;28;20566;-65
2022/11/28 10:53:15;;;;;;;3.10;2.60;;;7.60;98.00;;;;;;5015741;28;20456;-65
2022/11/28 10:55:53;;;;;;;5.07;3.03;;;7.80;98.00;;;;;;5009332;28;20868;-65
2022/11/28 10:58:23;;;;;;;6.43;3.13;;;7.80;98.00;;;;;;5009624;28;20953;-66
2022/11/28 11:00:56;;;;;;;7.20;3.40;;;7.80;98.00;;;;;;5027644;28;20495;-65
2022/11/28 11:03:27;;;;;;;6.70;2.60;;;8.00;98.00;;;;;;5011541;28;20468;-65
2022/11/28 11:05:54;;;;;;;3.90;2.40;;;8.00;98.00;;;;;;5019671;28;20473;-66
2022/11/28 11:08:23;;;;;;;7.30;3.27;;;8.00;98.00;;;;;;5009695;28;20866;-65
2022/11/28 11:10:52;;;;;;;3.57;2.50;;;8.00;98.00;;;;;;5011022;28;20478;-65
2022/11/28 11:13:22;;;;;;;5.73;2.77;;;8.10;98.00;;;;;;5009370;28;20480;-66
2022/11/28 11:15:53;;;;;;;2.27;2.07;;;8.20;98.00;;;;;;5028882;28;20567;-66
2022/11/28 11:18:26;;;;;;;4.70;2.73;;;8.10;98.00;;;;;;5009469;28;20446;-66
2022/11/28 11:21:10;;;;;;;7.70;3.37;;;8.00;98.00;;;;;;5020577;28;20492;-66
2022/11/28 11:23:37;;;;;;;4.50;3.23;;;7.90;98.00;;;;;;5029460;28;20486;-65
2022/11/28 11:26:09;;;;;;;5.43;2.83;;;7.90;98.00;;;;;;5028393;28;20464;-65
2022/11/28 11:28:45;;;;;;;9.37;2.80;;;8.00;98.00;;;;;;5028068;28;20476;-65
2022/11/28 11:31:24;;;;;;;5.37;3.10;;;8.20;98.00;;;;;;5007940;28;20465;-65
2022/11/28 11:34:01;;;;;;;8.57;3.67;;;8.30;98.00;;;;;;5018441;28;20952;-65
2022/11/28 11:36:30;;;;;;;6.43;3.00;;;8.30;98.00;;;;;;5008736;28;20462;-65
2022/11/28 11:39:16;;;;;;;5.00;2.53;;;8.50;98.00;;;;;;5008941;28;20460;-65
2022/11/28 11:41:45;;;;;;;5.47;3.07;;;8.60;98.00;;;;;;5019627;28;20579;-66
2022/11/28 11:44:33;;;;;;;6.63;3.10;;;8.50;98.00;;;;;;5018692;28;20451;-66
2022/11/28 11:47:02;;;;;;;3.40;2.10;;;8.50;98.00;;;;;;5018955;28;20466;-65
2022/11/28 11:49:34;;;;;;;5.40;2.97;;;8.50;98.00;;;;;;5006107;28;20453;-65
2022/11/28 11:52:04;;;;;;;6.33;3.33;;;8.60;98.00;;;;;;5008290;28;20490;-65
2022/11/28 11:54:31;;;;;;;5.30;3.20;;;8.40;98.00;;;;;;5008599;28;20826;-65
2022/11/28 11:56:59;;;;;;;4.23;2.20;;;8.50;98.00;;;;;;5020167;28;20462;-65
2022/11/28 11:59:31;;;;;;;4.80;2.97;;;8.50;98.00;;;;;;5007110;28;20467;-65
2022/11/28 12:02:02;;;;;;;5.93;3.17;;;8.40;98.00;;;;;;5022491;28;20503;-65
2022/11/28 12:04:37;;;;;;;7.60;3.83;;;8.40;98.00;;;;;;5028205;28;20508;-64
2022/11/28 12:07:10;;;;;;;4.23;3.00;;;8.40;98.00;;;;;;5028100;28;20460;-65
2022/11/28 12:09:43;;;;;;;3.20;2.13;;;8.40;98.00;;;;;;5028178;28;20522;-65
2022/11/28 12:12:16;;;;;;;3.53;2.37;;;8.40;98.00;;;;;;5027936;28;20466;-65
2022/11/28 12:14:44;;;;;;;4.60;2.70;;;8.40;98.00;;;;;;5028179;28;20463;-65
2022/11/28 12:17:38;;;;;;;3.10;2.50;;;8.40;98.00;;;;;;5022064;28;21044;-65
2022/11/28 12:20:32;;;;;;;5.30;2.73;;;8.60;98.00;;;;;;5006593;28;20484;-66
2022/11/28 12:23:10;;;;;;;4.73;2.50;;;8.60;98.00;;;;;;5024718;28;20465;-65
2022/11/28 12:25:50;;;;;;;5.73;3.00;;;8.50;98.00;;;;;;5028109;28;20532;-65
2022/11/28 12:28:34;;;;;;;6.53;3.00;;;8.60;98.00;;;;;;5012031;28;20473;-65
2022/11/28 12:31:12;;;;;;;4.20;2.40;;;8.70;98.00;;;;;;5008714;28;20466;-65
2022/11/28 12:33:52;;;;;;;4.03;2.10;;;8.70;98.00;;;;;;5008541;28;20460;-66
2022/11/28 12:36:29;;;;;;;4.60;2.47;;;8.80;98.00;;;;;;5008179;28;20470;-65
2022/11/28 12:39:04;;;;;;;3.60;2.10;;;8.90;98.00;;;;;;5008362;28;20528;-65
2022/11/28 12:42:09;;;;;;;5.10;3.03;;;9.00;98.00;;;;;;5008291;28;20596;-65
2022/11/28 12:45:01;;;;;;;2.83;1.90;;;8.90;98.00;;;;;;4975946;28;20546;-65
2022/11/28 12:47:39;;;;;;;5.00;2.60;;;9.00;98.00;;;;;;5007759;28;20504;-65
2022/11/28 12:50:18;;;;;;;3.70;2.60;;;9.00;98.00;;;;;;5006171;28;20474;-65
2022/11/28 12:52:56;;;;;;;4.10;2.70;;;9.00;98.00;;;;;;5008640;28;20473;-65
2022/11/28 12:55:32;;;;;;;2.77;2.03;;;9.00;98.00;;;;;;5008662;28;21041;-65
2022/11/28 12:58:09;;;;;;;10.67;2.43;;;9.00;98.00;;;;;;5008352;28;20545;-65
2022/11/28 13:00:48;;;;;;;4.50;3.27;;;9.00;98.00;;;;;;5008418;28;20489;-65
2022/11/28 13:03:31;;;;;;;3.53;2.30;;;9.00;98.00;;;;;;5031845;28;20520;-65
2022/11/28 13:06:05;;;;;;;4.37;2.67;;;9.00;98.00;;;;;;5031686;28;20461;-66
2022/11/28 13:08:52;;;;;;;4.10;2.60;;;9.10;98.00;;;;;;5030143;28;20954;-65
2022/11/28 13:11:34;;;;;;;3.83;2.73;;;9.10;98.00;;;;;;5025955;28;20466;-65
2022/11/28 13:14:07;;;;;;;8.70;3.90;;;9.00;98.00;;;;;;5021072;28;20465;-65
2022/11/28 13:16:43;;;;;;;7.50;3.60;;;9.10;98.00;;;;;;5021514;28;20461;-65
2022/11/28 13:19:22;;;;;;;7.63;3.43;;;9.20;98.00;;;;;;5029016;28;20554;-65
2022/11/28 13:21:55;;;;;;;5.70;3.47;;;9.20;98.00;;;;;;5033349;28;20873;-65
2022/11/28 13:24:29;;;;;;;5.20;3.80;;;9.40;98.00;;;;;;5033766;28;20458;-64